createdAt,value
2022-07-25T00:00:22.219Z,14.80
2022-07-25T00:02:24.096Z,14.80
2022-07-25T00:04:26.053Z,14.80
2022-07-25T00:06:27.886Z,14.80
2022-07-25T00:08:29.787Z,14.70
2022-07-25T00:10:31.558Z,14.70
2022-07-25T00:12:34.799Z,14.70
2022-07-25T00:14:36.718Z,14.70
2022-07-25T00:16:38.718Z,14.70
2022-07-25T00:18:40.881Z,14.70
2022-07-25T00:20:42.858Z,14.70
2022-07-25T00:22:44.707Z,14.60
2022-07-25T00:24:46.501Z,14.70
2022-07-25T00:26:48.324Z,14.70
2022-07-25T00:28:51.534Z,14.70
2022-07-25T00:30:53.730Z,14.70
2022-07-25T00:32:55.576Z,14.70
2022-07-25T00:34:57.370Z,14.70
2022-07-25T00:36:59.195Z,14.70
2022-07-25T00:39:01.058Z,14.70
2022-07-25T00:41:03.841Z,14.70
2022-07-25T00:43:05.650Z,14.70
2022-07-25T00:45:09.797Z,14.70
2022-07-25T00:47:11.560Z,14.70
2022-07-25T00:49:13.392Z,14.70
2022-07-25T00:51:16.366Z,14.70
2022-07-25T00:53:18.534Z,14.70
2022-07-25T00:55:20.811Z,14.70
2022-07-25T00:57:22.667Z,14.70
2022-07-25T00:59:24.467Z,14.70
2022-07-25T01:01:27.769Z,14.70
2022-07-25T01:03:29.630Z,14.60
2022-07-25T01:05:31.665Z,14.60
2022-07-25T01:07:33.655Z,14.70
2022-07-25T01:09:36.290Z,14.60
2022-07-25T01:11:39.054Z,14.60
2022-07-25T01:13:40.937Z,14.60
2022-07-25T01:15:43.671Z,14.60
2022-07-25T01:17:46.991Z,14.60
2022-07-25T01:19:48.802Z,14.60
2022-07-25T01:21:51.983Z,14.60
2022-07-25T01:23:53.865Z,14.60
2022-07-25T01:25:55.684Z,14.60
2022-07-25T01:27:57.501Z,14.60
2022-07-25T01:29:59.299Z,14.60
2022-07-25T01:32:01.155Z,14.60
2022-07-25T01:34:03.285Z,14.60
2022-07-25T01:36:06.065Z,14.60
2022-07-25T01:38:09.186Z,14.70
2022-07-25T01:40:11.419Z,14.60
2022-07-25T01:42:13.212Z,14.70
2022-07-25T01:44:15.008Z,14.70
2022-07-25T01:46:17.106Z,14.60
2022-07-25T01:48:19.017Z,14.70
2022-07-25T01:50:22.254Z,14.70
2022-07-25T01:52:24.106Z,14.60
2022-07-25T01:54:27.255Z,14.70
2022-07-25T01:56:29.093Z,14.70
2022-07-25T01:58:33.693Z,14.70
2022-07-25T02:00:35.567Z,14.70
2022-07-25T02:02:37.430Z,14.70
2022-07-25T02:04:39.313Z,14.60
2022-07-25T02:06:41.397Z,14.60
2022-07-25T02:08:43.261Z,14.60
2022-07-25T02:10:46.367Z,14.70
2022-07-25T02:12:48.158Z,14.70
2022-07-25T02:14:50.053Z,14.70
2022-07-25T02:16:51.897Z,14.70
2022-07-25T02:18:53.715Z,14.70
2022-07-25T02:20:55.621Z,14.70
2022-07-25T02:22:57.430Z,14.70
2022-07-25T02:24:59.258Z,14.70
2022-07-25T02:27:02.473Z,14.70
2022-07-25T02:29:04.302Z,14.70
2022-07-25T02:31:06.163Z,14.70
2022-07-25T02:33:08.079Z,14.70
2022-07-25T02:35:13.339Z,14.70
2022-07-25T02:37:15.346Z,14.70
2022-07-25T02:39:17.222Z,14.70
2022-07-25T02:41:18.992Z,14.70
2022-07-25T02:43:22.118Z,14.70
2022-07-25T02:45:23.981Z,14.60
2022-07-25T02:47:25.817Z,14.60
2022-07-25T02:49:27.576Z,14.60
2022-07-25T02:51:29.539Z,14.60
2022-07-25T02:53:54.791Z,14.60
2022-07-25T02:55:53.078Z,14.60
2022-07-25T02:57:54.999Z,14.60
2022-07-25T02:59:58.187Z,14.60
2022-07-25T03:01:59.992Z,14.60
2022-07-25T03:04:01.926Z,14.60
2022-07-25T03:06:04.087Z,14.60
2022-07-25T03:08:06.338Z,14.60
2022-07-25T03:10:11.345Z,14.60
2022-07-25T03:12:13.354Z,14.70
2022-07-25T03:14:15.194Z,14.70
2022-07-25T03:16:18.443Z,14.70
2022-07-25T03:18:20.357Z,14.60
2022-07-25T03:20:22.199Z,14.70
2022-07-25T03:22:24.586Z,14.70
2022-07-25T03:24:26.372Z,14.60
2022-07-25T03:26:28.223Z,14.70
2022-07-25T03:28:30.044Z,14.70
2022-07-25T03:30:31.905Z,14.70
2022-07-25T03:32:35.133Z,14.70
2022-07-25T03:34:37.196Z,14.70
2022-07-25T03:36:39.036Z,14.70
2022-07-25T03:38:40.956Z,14.80
2022-07-25T03:40:42.932Z,14.80
2022-07-25T03:42:44.764Z,14.90
2022-07-25T03:44:46.659Z,14.90
2022-07-25T03:46:48.553Z,15.00
2022-07-25T03:48:51.771Z,15.00
2022-07-25T03:50:53.653Z,15.00
2022-07-25T03:52:55.716Z,15.00
2022-07-25T03:54:57.690Z,15.10
2022-07-25T03:56:59.510Z,15.10
2022-07-25T03:59:01.704Z,15.10
2022-07-25T04:01:03.654Z,15.20
2022-07-25T04:03:06.267Z,15.30
2022-07-25T04:05:10.494Z,15.30
2022-07-25T04:07:12.289Z,15.40
2022-07-25T04:09:14.126Z,15.40
2022-07-25T04:11:16.241Z,15.50
2022-07-25T04:13:18.008Z,15.60
2022-07-25T04:15:19.883Z,15.70
2022-07-25T04:17:21.785Z,15.80
2022-07-25T04:19:26.313Z,15.80
2022-07-25T04:21:32.285Z,15.90
2022-07-25T04:23:34.278Z,16.00
2022-07-25T04:25:36.186Z,16.10
2022-07-25T04:27:37.926Z,16.20
2022-07-25T04:29:39.759Z,16.30
2022-07-25T04:31:41.706Z,16.40
2022-07-25T04:33:43.686Z,16.40
2022-07-25T04:35:45.816Z,16.50
2022-07-25T04:37:49.189Z,16.70
2022-07-25T04:39:50.983Z,16.90
2022-07-25T04:41:52.895Z,17.00
2022-07-25T04:43:54.800Z,17.10
2022-07-25T04:45:56.645Z,17.20
2022-07-25T04:47:58.610Z,17.30
2022-07-25T04:50:00.446Z,17.40
2022-07-25T04:52:02.263Z,17.50
2022-07-25T04:54:06.432Z,17.70
2022-07-25T04:56:08.706Z,17.80
2022-07-25T04:58:10.513Z,17.90
2022-07-25T05:00:13.681Z,18.00
2022-07-25T05:02:17.992Z,18.10
2022-07-25T05:04:19.775Z,18.20
2022-07-25T05:06:21.565Z,18.30
2022-07-25T05:08:23.370Z,18.40
2022-07-25T05:10:28.386Z,18.60
2022-07-25T05:12:30.206Z,18.60
2022-07-25T05:14:32.026Z,18.70
2022-07-25T05:16:33.901Z,18.90
2022-07-25T05:18:35.730Z,19.10
2022-07-25T05:20:37.674Z,19.20
2022-07-25T05:22:39.544Z,19.40
2022-07-25T05:24:41.534Z,19.60
2022-07-25T05:26:45.065Z,19.80
2022-07-25T05:28:46.920Z,20.00
2022-07-25T05:30:48.779Z,20.20
2022-07-25T05:32:50.615Z,20.40
2022-07-25T05:34:52.492Z,20.60
2022-07-25T05:36:54.304Z,20.70
2022-07-25T05:38:56.100Z,20.90
2022-07-25T05:40:57.944Z,21.10
2022-07-25T05:43:03.563Z,21.30
2022-07-25T05:45:06.842Z,21.50
2022-07-25T05:47:09.705Z,21.60
2022-07-25T05:49:11.608Z,21.90
2022-07-25T05:51:13.508Z,22.20
2022-07-25T05:53:15.349Z,22.60
2022-07-25T05:55:17.279Z,22.90
2022-07-25T05:57:19.135Z,23.20
2022-07-25T05:59:22.291Z,23.50
2022-07-25T06:01:24.300Z,23.70
2022-07-25T06:03:26.199Z,23.70
2022-07-25T06:05:28.389Z,24.00
2022-07-25T06:07:30.224Z,24.10
2022-07-25T06:09:32.098Z,24.20
2022-07-25T06:11:34.012Z,24.60
2022-07-25T06:13:36.357Z,25.00
2022-07-25T06:15:39.554Z,24.70
2022-07-25T06:17:41.424Z,24.90
2022-07-25T06:19:43.256Z,25.20
2022-07-25T06:21:45.075Z,25.50
2022-07-25T06:23:46.839Z,25.90
2022-07-25T06:25:50.243Z,26.10
2022-07-25T06:27:52.370Z,26.20
2022-07-25T06:29:54.339Z,26.00
2022-07-25T06:31:57.579Z,26.00
2022-07-25T06:33:59.468Z,26.10
2022-07-25T06:36:01.441Z,26.20
2022-07-25T06:38:03.845Z,26.10
2022-07-25T06:40:06.768Z,26.40
2022-07-25T06:42:08.576Z,26.30
2022-07-25T06:44:10.475Z,26.60
2022-07-25T06:46:12.457Z,26.80
2022-07-25T06:48:16.367Z,27.10
2022-07-25T06:50:21.298Z,27.30
2022-07-25T06:52:23.401Z,27.50
2022-07-25T06:54:25.291Z,27.60
2022-07-25T06:56:27.073Z,27.80
2022-07-25T06:58:28.928Z,27.80
2022-07-25T07:00:30.788Z,27.70
2022-07-25T07:02:32.695Z,27.80
2022-07-25T07:04:35.867Z,27.90
2022-07-25T07:06:38.113Z,28.20
2022-07-25T07:08:40.033Z,28.70
2022-07-25T07:10:41.948Z,29.10
2022-07-25T07:12:44.019Z,29.10
2022-07-25T07:14:46.218Z,29.40
2022-07-25T07:16:48.041Z,29.20
2022-07-25T07:18:49.942Z,29.50
2022-07-25T07:20:53.218Z,29.20
2022-07-25T07:22:55.089Z,28.50
2022-07-25T07:24:58.847Z,28.70
2022-07-25T07:27:00.651Z,28.30
2022-07-25T07:29:02.497Z,28.50
2022-07-25T07:31:20.044Z,29.10
2022-07-25T07:33:21.932Z,29.50
2022-07-25T07:35:23.751Z,29.50
2022-07-25T07:37:30.388Z,30.00
2022-07-25T07:39:35.005Z,30.50
2022-07-25T07:41:36.904Z,30.00
2022-07-25T07:43:38.757Z,30.50
2022-07-25T07:45:41.452Z,30.30
2022-07-25T07:47:43.298Z,30.30
2022-07-25T07:49:50.006Z,30.70
2022-07-25T07:51:52.163Z,30.10
2022-07-25T07:53:55.319Z,29.70
2022-07-25T07:55:57.149Z,29.50
2022-07-25T07:57:59.065Z,29.70
2022-07-25T08:00:00.859Z,30.20
2022-07-25T08:02:02.768Z,30.30
2022-07-25T08:04:05.177Z,30.40
2022-07-25T08:06:07.434Z,30.30
2022-07-25T08:08:11.722Z,30.30
2022-07-25T08:10:14.903Z,30.00
2022-07-25T08:12:16.653Z,30.00
2022-07-25T08:14:18.647Z,30.00
2022-07-25T08:16:20.566Z,30.70
2022-07-25T08:18:22.777Z,30.90
2022-07-25T08:20:38.498Z,31.40
2022-07-25T08:22:43.109Z,31.50
2022-07-25T08:24:44.913Z,31.50
2022-07-25T08:26:48.077Z,31.70
2022-07-25T08:28:59.883Z,32.20
2022-07-25T08:31:11.769Z,32.10
2022-07-25T08:33:15.280Z,31.90
2022-07-25T08:35:17.649Z,32.20
2022-07-25T08:37:19.472Z,32.60
2022-07-25T08:39:21.251Z,32.40
2022-07-25T08:41:24.692Z,32.90
2022-07-25T08:43:30.345Z,33.50
2022-07-25T08:45:33.654Z,32.70
2022-07-25T08:47:36.164Z,32.50
2022-07-25T08:49:38.009Z,32.10
2022-07-25T08:51:40.668Z,30.80
2022-07-25T08:53:43.289Z,31.00
2022-07-25T08:55:50.429Z,32.00
2022-07-25T08:57:53.768Z,32.50
2022-07-25T08:59:59.167Z,32.80
2022-07-25T09:02:01.055Z,32.10
2022-07-25T09:04:04.276Z,32.10
2022-07-25T09:06:18.724Z,32.90
2022-07-25T09:08:20.547Z,33.40
2022-07-25T09:10:24.124Z,32.70
2022-07-25T09:12:26.871Z,32.90
2022-07-25T09:14:28.773Z,33.80
2022-07-25T09:16:33.481Z,34.80
2022-07-25T09:18:35.281Z,34.20
2022-07-25T09:20:42.796Z,34.70
2022-07-25T09:22:45.171Z,34.40
2022-07-25T09:24:47.469Z,34.10
2022-07-25T09:26:51.455Z,34.70
2022-07-25T09:28:53.659Z,35.10
2022-07-25T09:30:56.680Z,34.50
2022-07-25T09:33:02.970Z,34.60
2022-07-25T09:35:05.630Z,35.30
2022-07-25T09:37:09.043Z,35.80
2022-07-25T09:39:10.842Z,35.50
2022-07-25T09:41:12.667Z,36.20
2022-07-25T09:43:14.645Z,36.70
2022-07-25T09:45:16.479Z,36.40
2022-07-25T09:47:18.416Z,36.40
2022-07-25T09:49:21.818Z,35.20
2022-07-25T09:51:23.906Z,35.40
2022-07-25T09:53:26.451Z,36.40
2022-07-25T09:55:29.286Z,35.50
2022-07-25T09:57:31.167Z,35.60
2022-07-25T09:59:33.332Z,36.60
2022-07-25T10:01:37.866Z,35.90
2022-07-25T10:03:48.724Z,33.90
2022-07-25T10:06:06.588Z,34.10
2022-07-25T10:08:08.616Z,34.60
2022-07-25T10:10:21.810Z,34.80
2022-07-25T10:12:24.262Z,36.00
2022-07-25T10:14:26.103Z,34.40
2022-07-25T10:16:28.052Z,34.10
2022-07-25T10:18:31.469Z,35.30
2022-07-25T10:20:33.345Z,36.50
2022-07-25T10:22:56.374Z,36.10
2022-07-25T10:25:10.765Z,36.40
2022-07-25T10:27:14.517Z,36.50
2022-07-25T10:29:16.326Z,36.00
2022-07-25T10:31:20.707Z,34.80
2022-07-25T10:33:25.263Z,34.70
2022-07-25T10:35:28.187Z,35.50
2022-07-25T10:37:30.047Z,34.40
2022-07-25T10:39:38.554Z,34.50
2022-07-25T10:41:41.536Z,34.00
2022-07-25T10:43:48.695Z,34.20
2022-07-25T10:45:52.747Z,34.10
2022-07-25T10:47:55.144Z,34.30
2022-07-25T10:52:20.340Z,33.80
2022-07-25T10:54:22.826Z,33.50
2022-07-25T10:56:28.724Z,34.10
2022-07-25T10:58:42.246Z,33.70
2022-07-25T11:00:44.192Z,34.70
2022-07-25T11:02:49.436Z,35.00
2022-07-25T11:04:59.589Z,35.40
2022-07-25T11:07:08.284Z,35.70
2022-07-25T11:09:18.590Z,36.70
2022-07-25T11:11:21.788Z,37.60
2022-07-25T11:13:24.950Z,37.10
2022-07-25T11:15:26.822Z,37.60
2022-07-25T11:17:28.677Z,38.00
2022-07-25T11:19:30.496Z,37.30
2022-07-25T11:21:32.281Z,38.00
2022-07-25T11:23:34.120Z,38.00
2022-07-25T11:25:35.976Z,38.20
2022-07-25T11:27:37.951Z,38.10
2022-07-25T11:29:41.658Z,38.80
2022-07-25T11:31:43.570Z,39.50
2022-07-25T11:33:48.490Z,39.90
2022-07-25T11:35:50.402Z,39.30
2022-07-25T11:37:53.291Z,38.90
2022-07-25T11:39:56.286Z,39.00
2022-07-25T11:42:06.878Z,38.90
2022-07-25T11:44:08.759Z,38.40
2022-07-25T11:46:12.046Z,38.70
2022-07-25T11:48:14.659Z,39.10
2022-07-25T11:50:16.680Z,39.80
2022-07-25T11:52:20.244Z,39.80
2022-07-25T11:54:22.145Z,40.40
2022-07-25T11:58:57.349Z,39.40
2022-07-25T12:00:59.212Z,38.90
2022-07-25T12:03:09.163Z,38.80
2022-07-25T12:05:12.762Z,39.40
2022-07-25T12:07:14.788Z,40.20
2022-07-25T12:09:19.527Z,39.80
2022-07-25T12:11:23.423Z,39.30
2022-07-25T12:13:27.350Z,39.30
2022-07-25T12:15:31.086Z,39.00
2022-07-25T12:17:32.836Z,39.30
2022-07-25T12:19:39.403Z,39.80
2022-07-25T12:21:41.249Z,40.20
2022-07-25T12:23:43.078Z,41.00
2022-07-25T12:25:46.642Z,41.10
2022-07-25T12:27:49.408Z,41.20
2022-07-25T12:29:51.188Z,41.10
2022-07-25T12:31:53.005Z,41.00
2022-07-25T12:33:54.894Z,41.10
2022-07-25T12:35:58.541Z,40.70
2022-07-25T12:38:00.509Z,41.30
2022-07-25T12:40:03.167Z,41.80
2022-07-25T12:42:05.113Z,41.90
2022-07-25T12:44:07.006Z,42.20
2022-07-25T12:46:08.891Z,42.50
2022-07-25T12:48:13.049Z,41.50
2022-07-25T12:50:15.665Z,41.10
2022-07-25T12:52:18.943Z,41.40
2022-07-25T12:54:22.649Z,40.90
2022-07-25T12:56:24.638Z,41.30
2022-07-25T12:58:26.466Z,40.70
2022-07-25T13:00:28.410Z,40.10
2022-07-25T13:02:30.314Z,40.40
2022-07-25T13:04:32.510Z,39.50
2022-07-25T13:06:38.518Z,39.30
2022-07-25T13:08:41.989Z,39.50
2022-07-25T13:10:43.747Z,39.90
2022-07-25T13:12:45.625Z,38.70
2022-07-25T13:14:47.439Z,39.10
2022-07-25T13:16:49.274Z,39.70
2022-07-25T13:18:51.124Z,39.10
2022-07-25T13:20:52.944Z,39.80
2022-07-25T13:22:54.767Z,39.90
2022-07-25T13:24:57.942Z,40.50
2022-07-25T13:26:59.825Z,40.40
2022-07-25T13:29:02.734Z,40.40
2022-07-25T13:31:04.578Z,41.00
2022-07-25T13:33:06.452Z,40.20
2022-07-25T13:35:08.836Z,39.40
2022-07-25T13:37:11.333Z,39.70
2022-07-25T13:39:13.290Z,39.80
2022-07-25T13:41:16.431Z,39.40
2022-07-25T13:43:19.310Z,40.00
2022-07-25T13:45:21.214Z,38.40
2022-07-25T13:47:26.895Z,37.60
2022-07-25T13:49:31.829Z,38.50
2022-07-25T13:51:33.609Z,37.70
2022-07-25T13:53:35.419Z,38.40
2022-07-25T13:55:37.242Z,37.50
2022-07-25T13:57:40.465Z,36.30
2022-07-25T13:59:42.264Z,36.20
2022-07-25T14:01:44.187Z,37.30
2022-07-25T14:03:46.279Z,38.30
2022-07-25T14:05:48.571Z,39.00
2022-07-25T14:07:50.404Z,37.60
2022-07-25T14:09:52.263Z,37.40
2022-07-25T14:11:54.078Z,37.40
2022-07-25T14:13:57.287Z,37.80
2022-07-25T14:15:59.217Z,37.80
2022-07-25T14:18:01.013Z,37.80
2022-07-25T14:20:03.217Z,37.60
2022-07-25T14:22:05.062Z,37.10
2022-07-25T14:24:07.811Z,36.50
2022-07-25T14:26:09.628Z,36.50
2022-07-25T14:28:11.527Z,35.90
2022-07-25T14:30:15.792Z,36.50
2022-07-25T14:32:17.580Z,37.10
2022-07-25T14:34:19.495Z,37.30
2022-07-25T14:36:21.345Z,36.60
2022-07-25T14:38:23.187Z,36.40
2022-07-25T14:40:25.208Z,36.10
2022-07-25T14:42:27.582Z,36.10
2022-07-25T14:44:29.435Z,35.70
2022-07-25T14:46:32.973Z,35.40
2022-07-25T14:48:35.691Z,36.00
2022-07-25T14:50:37.790Z,36.10
2022-07-25T14:52:39.657Z,36.80
2022-07-25T14:54:41.954Z,36.60
2022-07-25T14:56:44.388Z,36.30
2022-07-25T14:58:46.388Z,36.70
2022-07-25T15:00:48.428Z,37.10
2022-07-25T15:02:51.694Z,37.50
2022-07-25T15:04:53.613Z,37.70
2022-07-25T15:06:55.496Z,37.30
2022-07-25T15:08:57.489Z,36.10
2022-07-25T15:10:59.284Z,35.20
2022-07-25T15:13:29.251Z,35.00
2022-07-25T15:15:22.999Z,35.30
2022-07-25T15:17:24.878Z,35.50
2022-07-25T15:19:28.393Z,36.10
2022-07-25T15:21:30.549Z,36.50
2022-07-25T15:23:32.468Z,36.90
2022-07-25T15:26:00.671Z,36.40
2022-07-25T15:27:56.791Z,36.40
2022-07-25T15:29:58.653Z,36.80
2022-07-25T15:32:00.483Z,36.80
2022-07-25T15:34:02.433Z,36.90
2022-07-25T15:36:06.197Z,36.70
2022-07-25T15:38:07.960Z,36.70
2022-07-25T15:40:11.043Z,36.90
2022-07-25T15:42:12.922Z,36.50
2022-07-25T15:44:14.761Z,36.50
2022-07-25T15:46:17.001Z,36.50
2022-07-25T15:48:19.014Z,36.70
2022-07-25T15:50:22.047Z,36.90
2022-07-25T15:52:25.220Z,36.70
2022-07-25T15:54:29.489Z,36.50
2022-07-25T15:56:31.555Z,36.50
2022-07-25T15:58:33.355Z,36.50
2022-07-25T16:00:35.763Z,36.70
2022-07-25T16:02:37.638Z,36.80
2022-07-25T16:04:39.454Z,36.70
2022-07-25T16:06:41.266Z,36.40
2022-07-25T16:08:44.376Z,36.00
2022-07-25T16:10:46.325Z,35.80
2022-07-25T16:12:48.367Z,35.50
2022-07-25T16:14:50.237Z,35.20
2022-07-25T16:16:52.140Z,34.80
2022-07-25T16:18:53.993Z,34.50
2022-07-25T16:20:55.834Z,34.40
2022-07-25T16:22:57.744Z,33.90
2022-07-25T16:25:00.979Z,33.90
2022-07-25T16:27:02.768Z,34.20
2022-07-25T16:29:04.683Z,34.40
2022-07-25T16:31:07.029Z,34.30
2022-07-25T16:33:08.869Z,34.30
2022-07-25T16:35:10.742Z,34.40
2022-07-25T16:37:13.046Z,34.40
2022-07-25T16:39:14.933Z,34.50
2022-07-25T16:41:18.111Z,34.40
2022-07-25T16:43:19.964Z,34.10
2022-07-25T16:45:21.938Z,33.90
2022-07-25T16:47:23.761Z,33.90
2022-07-25T16:49:25.684Z,33.80
2022-07-25T16:51:27.612Z,33.40
2022-07-25T16:53:29.407Z,33.40
2022-07-25T16:55:31.367Z,33.30
2022-07-25T16:57:34.665Z,33.10
2022-07-25T16:59:36.611Z,33.00
2022-07-25T17:01:38.594Z,32.70
2022-07-25T17:03:40.608Z,32.60
2022-07-25T17:05:42.509Z,32.40
2022-07-25T17:07:44.343Z,32.30
2022-07-25T17:09:46.200Z,32.40
2022-07-25T17:11:48.010Z,32.50
2022-07-25T17:13:51.223Z,32.40
2022-07-25T17:15:53.231Z,32.40
2022-07-25T17:17:55.140Z,32.20
2022-07-25T17:20:00.080Z,31.80
2022-07-25T17:22:02.150Z,31.70
2022-07-25T17:24:04.572Z,31.50
2022-07-25T17:26:06.477Z,31.40
2022-07-25T17:28:08.710Z,31.20
2022-07-25T17:30:12.751Z,31.20
2022-07-25T17:32:14.629Z,31.00
2022-07-25T17:34:16.416Z,31.10
2022-07-25T17:36:18.956Z,31.00
2022-07-25T17:38:25.639Z,30.90
2022-07-25T17:40:28.806Z,30.70
2022-07-25T17:42:30.549Z,30.60
2022-07-25T17:44:32.543Z,30.40
2022-07-25T17:46:35.827Z,30.30
2022-07-25T17:48:37.715Z,30.10
2022-07-25T17:50:39.709Z,29.90
2022-07-25T17:52:41.491Z,29.80
2022-07-25T17:54:43.864Z,29.60
2022-07-25T17:56:45.721Z,29.30
2022-07-25T17:58:47.541Z,29.20
2022-07-25T18:00:49.435Z,29.10
2022-07-25T18:02:56.954Z,29.10
2022-07-25T18:04:58.817Z,29.00
2022-07-25T18:07:00.789Z,28.90
2022-07-25T18:09:03.201Z,28.80
2022-07-25T18:11:05.178Z,28.70
2022-07-25T18:13:06.984Z,28.70
2022-07-25T18:15:10.368Z,28.60
2022-07-25T18:17:12.204Z,28.50
2022-07-25T18:19:15.478Z,28.30
2022-07-25T18:21:17.458Z,28.20
2022-07-25T18:23:19.399Z,28.10
2022-07-25T18:25:21.205Z,28.00
2022-07-25T18:27:23.328Z,27.90
2022-07-25T18:29:25.293Z,27.90
2022-07-25T18:31:27.169Z,27.80
2022-07-25T18:33:29.253Z,27.80
2022-07-25T18:35:32.488Z,27.70
2022-07-25T18:37:35.655Z,27.60
2022-07-25T18:39:37.452Z,27.60
2022-07-25T18:41:39.274Z,27.50
2022-07-25T18:43:41.046Z,27.50
2022-07-25T18:45:43.614Z,27.40
2022-07-25T18:47:46.751Z,27.30
2022-07-25T18:49:48.668Z,27.20
2022-07-25T18:51:51.910Z,27.10
2022-07-25T18:53:53.720Z,27.00
2022-07-25T18:55:55.530Z,26.90
2022-07-25T18:57:57.505Z,26.80
2022-07-25T19:00:02.995Z,26.70
2022-07-25T19:02:05.425Z,26.50
2022-07-25T19:04:07.654Z,26.40
2022-07-25T19:06:10.188Z,26.30
2022-07-25T19:08:13.307Z,26.20
2022-07-25T19:10:15.149Z,26.10
2022-07-25T19:12:16.976Z,26.00
2022-07-25T19:14:18.859Z,25.90
2022-07-25T19:16:21.045Z,25.80
2022-07-25T19:18:26.306Z,25.70
2022-07-25T19:20:31.162Z,25.70
2022-07-25T19:22:33.135Z,25.60
2022-07-25T19:24:36.448Z,25.60
2022-07-25T19:26:38.547Z,25.60
2022-07-25T19:28:40.354Z,25.50
2022-07-25T19:30:42.247Z,25.50
2022-07-25T19:32:44.739Z,25.30
2022-07-25T19:34:46.530Z,25.30
2022-07-25T19:36:48.449Z,25.30
2022-07-25T19:38:50.251Z,25.20
2022-07-25T19:40:53.697Z,24.90
2022-07-25T19:42:55.495Z,24.90
2022-07-25T19:44:57.349Z,25.10
2022-07-25T19:46:59.122Z,25.20
2022-07-25T19:49:01.876Z,25.30
2022-07-25T19:51:04.205Z,25.30
2022-07-25T19:53:06.129Z,25.30
2022-07-25T19:55:08.810Z,25.30
2022-07-25T19:57:12.001Z,25.30
2022-07-25T19:59:13.752Z,25.20
2022-07-25T20:01:16.056Z,25.10
2022-07-25T20:03:23.176Z,25.10
2022-07-25T20:05:25.790Z,25.00
2022-07-25T20:07:27.576Z,24.90
2022-07-25T20:09:30.199Z,24.90
2022-07-25T20:11:32.609Z,24.70
2022-07-25T20:13:36.114Z,24.60
2022-07-25T20:15:37.968Z,24.50
2022-07-25T20:17:39.770Z,24.50
2022-07-25T20:19:41.721Z,24.50
2022-07-25T20:21:43.670Z,24.40
2022-07-25T20:23:45.754Z,24.40
2022-07-25T20:25:47.505Z,24.30
2022-07-25T20:27:49.426Z,24.20
2022-07-25T20:29:52.762Z,24.10
2022-07-25T20:31:54.623Z,24.00
2022-07-25T20:33:56.499Z,23.90
2022-07-25T20:35:58.730Z,23.80
2022-07-25T20:38:00.649Z,23.70
2022-07-25T20:40:05.142Z,23.60
2022-07-25T20:42:07.576Z,23.40
2022-07-25T20:44:09.488Z,23.40
2022-07-25T20:46:12.639Z,23.30
2022-07-25T20:48:14.535Z,23.30
2022-07-25T20:50:16.355Z,23.30
2022-07-25T20:52:18.316Z,23.20
2022-07-25T20:54:20.171Z,23.20
2022-07-25T20:56:21.967Z,23.20
2022-07-25T20:58:23.902Z,23.20
2022-07-25T21:00:26.455Z,23.20
2022-07-25T21:02:29.688Z,23.20
2022-07-25T21:04:31.586Z,23.10
2022-07-25T21:06:33.515Z,23.00
2022-07-25T21:08:35.813Z,23.00
2022-07-25T21:10:38.330Z,23.10
2022-07-25T21:12:40.710Z,23.10
2022-07-25T21:14:42.539Z,23.00
2022-07-25T21:16:44.437Z,23.00
2022-07-25T21:18:47.689Z,23.00
2022-07-25T21:20:50.031Z,23.00
2022-07-25T21:22:51.913Z,22.90
2022-07-25T21:24:53.769Z,22.70
2022-07-25T21:26:55.606Z,22.70
2022-07-25T21:28:57.459Z,22.70
2022-07-25T21:30:59.364Z,22.60
2022-07-25T21:33:01.484Z,22.60
2022-07-25T21:35:05.405Z,22.60
2022-07-25T21:37:07.306Z,22.60
2022-07-25T21:39:09.731Z,22.50
2022-07-25T21:41:11.904Z,22.50
2022-07-25T21:43:13.761Z,22.40
2022-07-25T21:45:15.600Z,22.40
2022-07-25T21:47:17.455Z,22.40
2022-07-25T21:49:40.604Z,22.30
2022-07-25T21:51:42.935Z,22.30
2022-07-25T21:53:45.318Z,22.30
2022-07-25T21:55:47.138Z,22.20
2022-07-25T21:57:49.512Z,22.20
2022-07-25T21:59:51.259Z,22.20
2022-07-25T22:01:53.059Z,22.20
2022-07-25T22:03:56.361Z,22.20
2022-07-25T22:05:58.200Z,22.10
2022-07-25T22:08:01.534Z,22.10
2022-07-25T22:10:03.984Z,22.00
2022-07-25T22:12:06.573Z,22.00
2022-07-25T22:14:08.468Z,22.00
2022-07-25T22:16:10.372Z,22.00
2022-07-25T22:18:12.270Z,21.90
2022-07-25T22:20:14.122Z,21.90
2022-07-25T22:22:16.103Z,21.80
2022-07-25T22:24:19.311Z,21.70
2022-07-25T22:26:21.255Z,21.70
2022-07-25T22:28:23.061Z,21.70
2022-07-25T22:30:25.029Z,21.70
2022-07-25T22:32:26.836Z,21.70
2022-07-25T22:34:28.622Z,21.60
2022-07-25T22:36:30.550Z,21.60
2022-07-25T22:38:32.466Z,21.60
2022-07-25T22:40:35.684Z,21.60
2022-07-25T22:42:37.690Z,21.60
2022-07-25T22:44:39.523Z,21.60
2022-07-25T22:46:41.535Z,21.60
2022-07-25T22:48:43.517Z,21.60
2022-07-25T22:50:45.442Z,21.50
2022-07-25T22:52:50.224Z,21.50
2022-07-25T22:54:52.026Z,21.50
2022-07-25T22:56:55.300Z,21.50
2022-07-25T22:58:57.192Z,21.40
2022-07-25T23:00:59.049Z,21.30
2022-07-25T23:03:01.151Z,21.30
2022-07-25T23:05:03.252Z,21.20
2022-07-25T23:07:05.061Z,21.20
2022-07-25T23:09:07.349Z,21.10
2022-07-25T23:11:09.357Z,21.10
2022-07-25T23:13:12.547Z,21.00
2022-07-25T23:15:14.371Z,21.00
2022-07-25T23:17:16.128Z,20.90
2022-07-25T23:19:17.970Z,21.00
2022-07-25T23:21:24.302Z,21.00
2022-07-25T23:23:26.253Z,20.90
2022-07-25T23:25:28.041Z,20.90
2022-07-25T23:27:33.313Z,20.90
2022-07-25T23:29:38.602Z,20.90
2022-07-25T23:31:40.458Z,20.90
2022-07-25T23:33:42.386Z,20.80
2022-07-25T23:35:44.262Z,20.70
2022-07-25T23:37:46.137Z,21.30
2022-07-25T23:39:47.944Z,21.90
2022-07-25T23:41:49.769Z,22.10
2022-07-25T23:43:57.088Z,22.30
2022-07-25T23:46:02.610Z,22.40
2022-07-25T23:48:05.201Z,22.40
2022-07-25T23:50:07.749Z,22.40
2022-07-25T23:52:09.597Z,22.40
2022-07-25T23:54:11.396Z,22.40
2022-07-25T23:56:16.168Z,22.30
2022-07-25T23:58:22.239Z,22.30
